Time;durP1;ratioP1;P1;durP2;ratioP2;P2;SDS_P1;SDS_P2;PMS_P1;PMS_P2;Temp;Humidity;BMP_temperature;BMP_pressure;BME280_temperature;BME280_humidity;BME280_pressure;Samples;Min_cycle;Max_cycle;Signal;HPM_P1;HPM_P2
2023/06/30 03:55:21;;;;;;;1999.90;999.90;;;;;;;;;;5003989;28;20302;-72
2023/06/30 03:58:06;;;;;;;1999.90;999.90;;;;;;;;;;5004645;28;20211;-71
2023/06/30 04:00:51;;;;;;;1999.90;999.90;;;;;;;;;;4999112;28;20215;-72
2023/06/30 04:03:37;;;;;;;1999.90;999.90;;;;;;;;;;4996515;28;20242;-71
2023/06/30 04:06:22;;;;;;;1999.90;999.90;;;;;;;;;;4987968;28;20224;-72
2023/06/30 04:09:07;;;;;;;1999.90;999.90;;;;;;;;;;4985226;28;20227;-73
2023/06/30 04:11:54;;;;;;;1999.90;999.90;;;;;;;;;;4986986;28;20739;-72
2023/06/30 04:14:39;;;;;;;1999.90;999.90;;;;;;;;;;4991365;28;20366;-72
2023/06/30 04:17:24;;;;;;;1999.90;999.90;;;;;;;;;;4986808;28;20211;-74
2023/06/30 04:20:09;;;;;;;1999.90;999.90;;;;;;;;;;4982614;28;20224;-74
2023/06/30 04:22:55;;;;;;;1999.90;999.90;;;;;;;;;;4984115;28;20219;-75
2023/06/30 04:25:40;;;;;;;1999.90;999.90;;;;;;;;;;4991051;28;20302;-75
2023/06/30 04:28:26;;;;;;;1999.90;999.90;;;;;;;;;;4983593;28;20293;-75
2023/06/30 04:31:11;;;;;;;1999.90;999.90;;;;;;;;;;4994410;28;20590;-74
2023/06/30 04:33:56;;;;;;;1999.90;999.90;;;;;;;;;;4983880;28;20230;-73
2023/06/30 04:36:41;;;;;;;1999.90;999.90;;;;;;;;;;4990932;28;20803;-74
2023/06/30 04:39:26;;;;;;;1999.90;999.90;;;;;;;;;;4991472;28;20346;-72
2023/06/30 04:42:11;;;;;;;1999.90;999.90;;;;;;;;;;4983349;28;20254;-75
2023/06/30 04:44:57;;;;;;;1999.90;999.90;;;;;;;;;;4974787;28;20228;-75
2023/06/30 04:47:42;;;;;;;1999.90;999.90;;;;;;;;;;4983196;28;20219;-72
2023/06/30 04:50:27;;;;;;;1999.90;999.90;;;;;;;;;;4981505;28;20227;-74
2023/06/30 04:53:12;;;;;;;1999.90;999.90;;;;;;;;;;4983551;28;20521;-74
2023/06/30 04:55:57;;;;;;;1999.90;999.90;;;;;;;;;;4983061;28;20203;-75
2023/06/30 04:58:42;;;;;;;1999.90;999.90;;;;;;;;;;4990642;28;20215;-72
2023/06/30 05:01:28;;;;;;;1999.90;999.90;;;;;;;;;;4983901;28;20223;-73
2023/06/30 05:04:13;;;;;;;1999.90;999.90;;;;;;;;;;4987478;28;20360;-73
2023/06/30 05:06:58;;;;;;;1999.90;999.90;;;;;;;;;;4983095;28;20700;-75
2023/06/30 05:09:44;;;;;;;1999.90;999.90;;;;;;;;;;4983436;28;20217;-75
2023/06/30 05:12:29;;;;;;;1999.90;999.90;;;;;;;;;;4984282;28;20286;-75
2023/06/30 05:15:14;;;;;;;1999.90;999.90;;;;;;;;;;4980852;28;20569;-72
2023/06/30 05:18:00;;;;;;;1999.90;999.90;;;;;;;;;;4982832;28;20221;-73
2023/06/30 05:20:45;;;;;;;1999.90;999.90;;;;;;;;;;4979431;28;20214;-74
2023/06/30 05:23:30;;;;;;;1999.90;999.90;;;;;;;;;;4985211;28;20298;-75
2023/06/30 05:26:15;;;;;;;1999.90;999.90;;;;;;;;;;4982757;28;20279;-74
2023/06/30 05:29:00;;;;;;;1999.90;999.90;;;;;;;;;;4981699;28;20204;-74
2023/06/30 05:31:45;;;;;;;1999.90;999.90;;;;;;;;;;4976335;28;20415;-75
2023/06/30 05:34:31;;;;;;;1999.90;999.90;;;;;;;;;;4984714;28;20442;-75
2023/06/30 05:37:16;;;;;;;1999.90;999.90;;;;;;;;;;4982466;28;20289;-75
2023/06/30 05:40:01;;;;;;;1999.90;999.90;;;;;;;;;;4983658;28;20578;-74
2023/06/30 05:42:46;;;;;;;1999.90;999.90;;;;;;;;;;4978837;28;20226;-73
2023/06/30 05:45:31;;;;;;;1999.90;999.90;;;;;;;;;;4984246;28;20695;-76
2023/06/30 05:48:16;;;;;;;1999.90;999.90;;;;;;;;;;4974748;28;20210;-75
2023/06/30 05:51:02;;;;;;;1999.90;999.90;;;;;;;;;;4979271;28;20338;-73
2023/06/30 05:53:47;;;;;;;1999.90;999.90;;;;;;;;;;4981781;28;20354;-75
2023/06/30 05:56:32;;;;;;;1999.90;999.90;;;;;;;;;;4983190;28;20212;-72
2023/06/30 05:59:17;;;;;;;1999.90;999.90;;;;;;;;;;4980837;28;20212;-73
2023/06/30 06:02:03;;;;;;;1999.90;999.90;;;;;;;;;;4974683;28;20231;-74
2023/06/30 06:04:51;;;;;;;1999.90;999.90;;;;;;;;;;4979898;28;20712;-73
2023/06/30 06:07:38;;;;;;;1999.90;999.90;;;;;;;;;;4974533;28;20232;-73
2023/06/30 06:10:22;;;;;;;1999.90;999.90;;;;;;;;;;4991682;28;20221;-74
2023/06/30 06:13:07;;;;;;;1999.90;999.90;;;;;;;;;;4992011;28;20701;-76
2023/06/30 06:15:52;;;;;;;1999.90;999.90;;;;;;;;;;4992190;28;20207;-74
2023/06/30 06:18:37;;;;;;;1999.90;999.90;;;;;;;;;;4987907;28;20219;-75
2023/06/30 06:21:26;;;;;;;1999.90;999.90;;;;;;;;;;4981260;28;20290;-73
2023/06/30 06:24:12;;;;;;;1999.90;999.90;;;;;;;;;;4975233;28;20231;-75
2023/06/30 06:26:57;;;;;;;1999.90;999.90;;;;;;;;;;4977993;28;20419;-75
2023/06/30 06:29:42;;;;;;;1999.90;999.90;;;;;;;;;;4979434;28;20288;-76
2023/06/30 06:32:27;;;;;;;1999.90;999.90;;;;;;;;;;4979074;28;20203;-75
2023/06/30 06:35:12;;;;;;;1999.90;999.90;;;;;;;;;;4976580;28;20688;-76
2023/06/30 06:37:57;;;;;;;1999.90;999.90;;;;;;;;;;4981645;28;21243;-76
2023/06/30 06:40:43;;;;;;;1999.90;999.90;;;;;;;;;;4978743;28;20203;-73
2023/06/30 06:43:28;;;;;;;1999.90;999.90;;;;;;;;;;4977948;28;20301;-73
2023/06/30 06:46:13;;;;;;;1999.90;999.90;;;;;;;;;;4976849;28;20212;-75
2023/06/30 06:48:58;;;;;;;1999.90;999.90;;;;;;;;;;4976298;28;20699;-75
2023/06/30 06:51:43;;;;;;;1999.90;999.90;;;;;;;;;;4980726;28;20239;-75
2023/06/30 06:54:28;;;;;;;1999.90;999.90;;;;;;;;;;4978385;28;20248;-73
2023/06/30 06:57:14;;;;;;;1999.90;999.90;;;;;;;;;;4973954;28;20258;-75
2023/06/30 06:59:59;;;;;;;1999.90;999.90;;;;;;;;;;4976339;28;20216;-75
2023/06/30 07:02:44;;;;;;;1999.90;999.90;;;;;;;;;;4974547;28;20299;-74
2023/06/30 07:05:31;;;;;;;1999.90;999.90;;;;;;;;;;4973335;28;20747;-74
2023/06/30 07:08:16;;;;;;;1999.90;999.90;;;;;;;;;;4983779;28;20610;-76
2023/06/30 07:11:01;;;;;;;1999.90;999.90;;;;;;;;;;4984110;28;20210;-74
2023/06/30 07:13:47;;;;;;;1999.90;999.90;;;;;;;;;;4983307;28;20231;-74
2023/06/30 07:16:32;;;;;;;1999.90;999.90;;;;;;;;;;4982471;28;20746;-74
2023/06/30 07:19:17;;;;;;;1999.90;999.90;;;;;;;;;;4983244;28;20450;-74
2023/06/30 07:22:02;;;;;;;1999.90;999.90;;;;;;;;;;4982462;28;20208;-74
2023/06/30 07:24:47;;;;;;;1999.90;999.90;;;;;;;;;;4984968;28;20251;-74
2023/06/30 07:27:32;;;;;;;1999.90;999.90;;;;;;;;;;4981523;28;20211;-74
2023/06/30 07:30:19;;;;;;;1999.90;999.90;;;;;;;;;;4987528;28;20282;-74
2023/06/30 07:33:04;;;;;;;1999.90;999.90;;;;;;;;;;4989761;28;20702;-74
2023/06/30 07:35:49;;;;;;;1999.90;999.90;;;;;;;;;;4987462;28;20582;-75
2023/06/30 07:38:34;;;;;;;1999.90;999.90;;;;;;;;;;4986126;28;20406;-73
2023/06/30 07:41:19;;;;;;;1999.90;999.90;;;;;;;;;;4986508;28;20259;-74
2023/06/30 07:44:04;;;;;;;1999.90;999.90;;;;;;;;;;4985242;28;20267;-73
2023/06/30 07:46:50;;;;;;;1999.90;999.90;;;;;;;;;;4982533;28;20204;-74
2023/06/30 07:49:35;;;;;;;1999.90;999.90;;;;;;;;;;4985483;28;20968;-74
2023/06/30 07:52:20;;;;;;;1999.90;999.90;;;;;;;;;;4980777;28;20290;-74
2023/06/30 07:55:05;;;;;;;1999.90;999.90;;;;;;;;;;4983390;28;20318;-73
2023/06/30 07:57:51;;;;;;;1999.90;999.90;;;;;;;;;;4984392;28;20250;-75
2023/06/30 08:00:36;;;;;;;1999.90;999.90;;;;;;;;;;4985031;28;20210;-75
2023/06/30 08:03:22;;;;;;;1999.90;999.90;;;;;;;;;;4986402;28;20247;-75
2023/06/30 08:06:07;;;;;;;1999.90;999.90;;;;;;;;;;4981308;28;20227;-74
2023/06/30 08:08:52;;;;;;;1999.90;999.90;;;;;;;;;;4982701;28;20711;-74
2023/06/30 08:11:37;;;;;;;1999.90;999.90;;;;;;;;;;4984750;28;20655;-73
2023/06/30 08:14:22;;;;;;;1999.90;999.90;;;;;;;;;;4986421;28;20235;-73
2023/06/30 08:17:07;;;;;;;1999.90;999.90;;;;;;;;;;4991611;28;20223;-73
2023/06/30 08:19:53;;;;;;;1999.90;999.90;;;;;;;;;;4986255;28;20322;-74
2023/06/30 08:22:38;;;;;;;1999.90;999.90;;;;;;;;;;4983538;28;20589;-75
2023/06/30 08:25:24;;;;;;;1999.90;999.90;;;;;;;;;;4979559;28;20224;-75
2023/06/30 08:28:09;;;;;;;1999.90;999.90;;;;;;;;;;4980848;28;20253;-75
2023/06/30 08:30:54;;;;;;;1999.90;999.90;;;;;;;;;;4983648;28;20206;-75
2023/06/30 08:33:39;;;;;;;1999.90;999.90;;;;;;;;;;4978989;28;20951;-74
2023/06/30 08:36:26;;;;;;;1999.90;999.90;;;;;;;;;;4975424;28;20759;-74
2023/06/30 08:39:13;;;;;;;1999.90;999.90;;;;;;;;;;4979569;28;20208;-74
2023/06/30 08:41:59;;;;;;;1999.90;999.90;;;;;;;;;;4983392;28;20632;-74
2023/06/30 08:44:49;;;;;;;1999.90;999.90;;;;;;;;;;4983182;28;20223;-75
2023/06/30 08:47:35;;;;;;;1999.90;999.90;;;;;;;;;;4993285;28;20208;-74
2023/06/30 08:50:21;;;;;;;1999.90;999.90;;;;;;;;;;4993604;28;20285;-74
2023/06/30 08:53:07;;;;;;;1999.90;999.90;;;;;;;;;;4993084;28;20310;-74
2023/06/30 08:55:53;;;;;;;1999.90;999.90;;;;;;;;;;4992773;28;20215;-74
2023/06/30 08:58:38;;;;;;;1999.90;999.90;;;;;;;;;;4977064;28;20204;-73
2023/06/30 09:01:23;;;;;;;1999.90;999.90;;;;;;;;;;4975351;28;20208;-73
2023/06/30 09:04:08;;;;;;;1999.90;999.90;;;;;;;;;;4976501;28;20722;-74
2023/06/30 09:06:54;;;;;;;1999.90;999.90;;;;;;;;;;4975549;28;20517;-74
2023/06/30 09:09:42;;;;;;;1999.90;999.90;;;;;;;;;;4977513;28;20220;-74
2023/06/30 09:12:28;;;;;;;1999.90;999.90;;;;;;;;;;4981899;28;20704;-73
2023/06/30 09:15:15;;;;;;;1999.90;999.90;;;;;;;;;;4979758;28;20235;-72
2023/06/30 09:18:00;;;;;;;1999.90;999.90;;;;;;;;;;4975184;28;20317;-74
2023/06/30 09:20:45;;;;;;;1999.90;999.90;;;;;;;;;;4979570;28;20218;-75
2023/06/30 09:23:30;;;;;;;1999.90;999.90;;;;;;;;;;4986229;28;20235;-75
2023/06/30 09:26:17;;;;;;;1999.90;999.90;;;;;;;;;;4981204;28;20461;-74
2023/06/30 09:29:02;;;;;;;1999.90;999.90;;;;;;;;;;4977419;28;20231;-75
2023/06/30 09:31:50;;;;;;;1999.90;999.90;;;;;;;;;;4980378;28;20215;-74
2023/06/30 09:34:35;;;;;;;1999.90;999.90;;;;;;;;;;4979829;28;20727;-75
2023/06/30 09:37:20;;;;;;;1999.90;999.90;;;;;;;;;;4978153;28;20208;-75
2023/06/30 09:40:06;;;;;;;1999.90;999.90;;;;;;;;;;4979143;28;20691;-74
2023/06/30 09:42:53;;;;;;;1999.90;999.90;;;;;;;;;;4978736;28;20580;-74
2023/06/30 09:45:40;;;;;;;1999.90;999.90;;;;;;;;;;4979618;28;20203;-74
2023/06/30 09:48:29;;;;;;;1999.90;999.90;;;;;;;;;;4977056;28;20216;-75
2023/06/30 09:51:19;;;;;;;1999.90;999.90;;;;;;;;;;4981556;28;20203;-73
2023/06/30 09:54:09;;;;;;;1999.90;999.90;;;;;;;;;;4977853;28;20307;-74
2023/06/30 09:56:58;;;;;;;1999.90;999.90;;;;;;;;;;4981279;28;20201;-73
2023/06/30 09:59:45;;;;;;;1999.90;999.90;;;;;;;;;;4983422;28;20211;-74
2023/06/30 10:02:31;;;;;;;1999.90;999.90;;;;;;;;;;4981928;28;20283;-73
2023/06/30 10:05:16;;;;;;;1999.90;999.90;;;;;;;;;;4982234;28;20333;-74
2023/06/30 10:08:01;;;;;;;1999.90;999.90;;;;;;;;;;4978028;28;20702;-74
2023/06/30 10:10:47;;;;;;;1999.90;999.90;;;;;;;;;;4979873;28;20752;-74
2023/06/30 10:13:32;;;;;;;1999.90;999.90;;;;;;;;;;4979178;28;20242;-75
2023/06/30 10:16:19;;;;;;;1999.90;999.90;;;;;;;;;;4978601;28;20203;-74
2023/06/30 10:19:06;;;;;;;1999.90;999.90;;;;;;;;;;4982006;28;20659;-75
2023/06/30 10:21:51;;;;;;;1999.90;999.90;;;;;;;;;;4977971;28;20397;-74
2023/06/30 10:24:38;;;;;;;1999.90;999.90;;;;;;;;;;4978814;28;20335;-74
2023/06/30 10:27:24;;;;;;;1999.90;999.90;;;;;;;;;;4981212;28;20275;-74
2023/06/30 10:30:10;;;;;;;1999.90;999.90;;;;;;;;;;4982491;28;20763;-74
2023/06/30 10:32:56;;;;;;;1999.90;999.90;;;;;;;;;;4979672;28;20220;-76
2023/06/30 10:35:41;;;;;;;1999.90;999.90;;;;;;;;;;4981636;28;20715;-74
2023/06/30 10:38:26;;;;;;;1999.90;999.90;;;;;;;;;;4980333;28;20216;-74
2023/06/30 10:41:17;;;;;;;1999.90;999.90;;;;;;;;;;4981152;28;20215;-75
2023/06/30 10:44:05;;;;;;;1999.90;999.90;;;;;;;;;;4979381;28;20263;-76
2023/06/30 10:46:52;;;;;;;1999.90;999.90;;;;;;;;;;4976700;28;20224;-77
2023/06/30 10:49:39;;;;;;;1999.90;999.90;;;;;;;;;;4983485;28;20328;-76
2023/06/30 10:52:25;;;;;;;1999.90;999.90;;;;;;;;;;4975158;28;20212;-76
2023/06/30 10:55:14;;;;;;;1999.90;999.90;;;;;;;;;;4977011;28;20439;-76
2023/06/30 10:58:02;;;;;;;1999.90;999.90;;;;;;;;;;4978150;28;20288;-76
2023/06/30 11:01:02;;;;;;;1999.90;999.90;;;;;;;;;;4980153;28;20711;-76
2023/06/30 11:04:05;;;;;;;1999.90;999.90;;;;;;;;;;4981769;28;20239;-76
2023/06/30 11:07:03;;;;;;;1999.90;999.90;;;;;;;;;;4981946;28;20331;-76
2023/06/30 11:09:59;;;;;;;1999.90;999.90;;;;;;;;;;4981961;28;20283;-74
2023/06/30 11:12:51;;;;;;;1999.90;999.90;;;;;;;;;;4978598;28;20215;-77
2023/06/30 11:15:37;;;;;;;1999.90;999.90;;;;;;;;;;4981971;28;20561;-76
2023/06/30 11:18:23;;;;;;;1999.90;999.90;;;;;;;;;;4980800;28;20207;-76
2023/06/30 11:21:08;;;;;;;1999.90;999.90;;;;;;;;;;4977991;28;20223;-76
2023/06/30 11:23:57;;;;;;;1999.90;999.90;;;;;;;;;;4985688;28;20227;-76
2023/06/30 11:26:44;;;;;;;1999.90;999.90;;;;;;;;;;4980467;28;20210;-76
2023/06/30 11:29:29;;;;;;;1999.90;999.90;;;;;;;;;;4977674;28;20219;-76
2023/06/30 11:32:16;;;;;;;1999.90;999.90;;;;;;;;;;4980002;28;20322;-76
2023/06/30 11:35:05;;;;;;;1999.90;999.90;;;;;;;;;;4977674;28;20245;-76
2023/06/30 11:37:51;;;;;;;1999.90;999.90;;;;;;;;;;4979907;28;20295;-76
2023/06/30 11:40:44;;;;;;;1999.90;999.90;;;;;;;;;;4981098;28;20219;-76
2023/06/30 11:43:33;;;;;;;1999.90;999.90;;;;;;;;;;4978374;28;20231;-76
2023/06/30 11:46:18;;;;;;;1999.90;999.90;;;;;;;;;;4980296;28;20212;-77
2023/06/30 11:49:03;;;;;;;1999.90;999.90;;;;;;;;;;4976706;28;20441;-77
2023/06/30 11:51:47;;;;;;;1999.90;999.90;;;;;;;;;;4979942;28;20298;-76
2023/06/30 11:54:33;;;;;;;1999.90;999.90;;;;;;;;;;4977396;28;20290;-75
2023/06/30 11:57:19;;;;;;;1999.90;999.90;;;;;;;;;;4979918;28;20215;-76
2023/06/30 12:00:09;;;;;;;1999.90;999.90;;;;;;;;;;4978002;28;20578;-76
2023/06/30 12:02:54;;;;;;;1999.90;999.90;;;;;;;;;;4979614;28;20254;-76
2023/06/30 12:05:41;;;;;;;1999.90;999.90;;;;;;;;;;4982513;28;20212;-75
2023/06/30 12:08:28;;;;;;;1999.90;999.90;;;;;;;;;;4994053;28;20694;-75
2023/06/30 12:11:14;;;;;;;1999.90;999.90;;;;;;;;;;4980039;28;20215;-76
2023/06/30 12:14:00;;;;;;;1999.90;999.90;;;;;;;;;;4975216;28;20395;-75
2023/06/30 12:16:48;;;;;;;1999.90;999.90;;;;;;;;;;4975684;28;20279;-74
2023/06/30 12:19:33;;;;;;;1999.90;999.90;;;;;;;;;;4976180;28;20216;-75
2023/06/30 12:22:24;;;;;;;1999.90;999.90;;;;;;;;;;4975965;28;20272;-75
2023/06/30 12:25:11;;;;;;;1999.90;999.90;;;;;;;;;;4975737;28;20220;-74
2023/06/30 12:27:56;;;;;;;1999.90;999.90;;;;;;;;;;4975621;28;20290;-76
2023/06/30 12:30:44;;;;;;;1999.90;999.90;;;;;;;;;;4975737;28;20215;-75
2023/06/30 12:33:29;;;;;;;1999.90;999.90;;;;;;;;;;4975798;28;20328;-75
2023/06/30 12:36:14;;;;;;;1999.90;999.90;;;;;;;;;;4975521;28;20227;-75
2023/06/30 12:38:59;;;;;;;1999.90;999.90;;;;;;;;;;4975715;28;20208;-76
2023/06/30 12:41:44;;;;;;;1999.90;999.90;;;;;;;;;;4975604;28;20275;-75
2023/06/30 12:44:29;;;;;;;1999.90;999.90;;;;;;;;;;4975644;28;20232;-76
2023/06/30 12:47:16;;;;;;;1999.90;999.90;;;;;;;;;;4975742;28;20291;-75
2023/06/30 12:50:02;;;;;;;1999.90;999.90;;;;;;;;;;4981223;28;20220;-75
2023/06/30 12:52:47;;;;;;;1999.90;999.90;;;;;;;;;;4983945;28;20301;-75
2023/06/30 12:55:32;;;;;;;1999.90;999.90;;;;;;;;;;4988001;28;20227;-75
2023/06/30 12:58:17;;;;;;;1999.90;999.90;;;;;;;;;;4975339;28;20226;-74
2023/06/30 13:01:03;;;;;;;1999.90;999.90;;;;;;;;;;4987655;28;20208;-75
2023/06/30 13:03:50;;;;;;;1999.90;999.90;;;;;;;;;;4985773;28;20972;-73
2023/06/30 13:06:34;;;;;;;1999.90;999.90;;;;;;;;;;4985792;28;20219;-75
2023/06/30 13:09:19;;;;;;;1999.90;999.90;;;;;;;;;;4975904;28;20212;-76
2023/06/30 13:12:07;;;;;;;1999.90;999.90;;;;;;;;;;4977969;28;20303;-76
2023/06/30 13:14:52;;;;;;;1999.90;999.90;;;;;;;;;;4978300;28;20740;-75
2023/06/30 13:17:37;;;;;;;1999.90;999.90;;;;;;;;;;4984043;28;20339;-74
2023/06/30 13:20:23;;;;;;;1999.90;999.90;;;;;;;;;;4984700;28;20285;-75
2023/06/30 13:23:09;;;;;;;1999.90;999.90;;;;;;;;;;4982550;28;20603;-74
2023/06/30 13:25:54;;;;;;;1999.90;999.90;;;;;;;;;;4975091;28;20200;-75
2023/06/30 13:28:39;;;;;;;1999.90;999.90;;;;;;;;;;4981034;28;20222;-76
2023/06/30 13:31:24;;;;;;;1999.90;999.90;;;;;;;;;;4983638;28;20215;-75
2023/06/30 13:34:08;;;;;;;1999.90;999.90;;;;;;;;;;4976474;28;20339;-74
2023/06/30 13:36:55;;;;;;;1999.90;999.90;;;;;;;;;;4975441;28;20775;-73
2023/06/30 13:39:40;;;;;;;1999.90;999.90;;;;;;;;;;4983255;28;20286;-74
2023/06/30 13:42:24;;;;;;;1999.90;999.90;;;;;;;;;;4975099;28;20216;-75
2023/06/30 13:45:10;;;;;;;1999.90;999.90;;;;;;;;;;4982740;28;20366;-74
2023/06/30 13:47:55;;;;;;;1999.90;999.90;;;;;;;;;;4976985;28;20220;-75
2023/06/30 13:50:40;;;;;;;1999.90;999.90;;;;;;;;;;4976559;28;20594;-74
2023/06/30 13:53:26;;;;;;;1999.90;999.90;;;;;;;;;;4983301;28;20314;-76
2023/06/30 13:56:11;;;;;;;1999.90;999.90;;;;;;;;;;4981869;28;20235;-76
2023/06/30 13:58:56;;;;;;;1999.90;999.90;;;;;;;;;;4982985;28;20438;-75
2023/06/30 14:01:41;;;;;;;1999.90;999.90;;;;;;;;;;4980894;28;20208;-74
2023/06/30 14:04:26;;;;;;;1999.90;999.90;;;;;;;;;;4979739;28;20242;-73
2023/06/30 14:07:11;;;;;;;1999.90;999.90;;;;;;;;;;4977100;28;20247;-74
2023/06/30 14:09:58;;;;;;;1999.90;999.90;;;;;;;;;;4974111;28;20200;-75
2023/06/30 14:12:43;;;;;;;1999.90;999.90;;;;;;;;;;4982069;28;20211;-73
2023/06/30 14:15:29;;;;;;;1999.90;999.90;;;;;;;;;;4992289;28;20223;-74
2023/06/30 14:18:14;;;;;;;1999.90;999.90;;;;;;;;;;4977294;28;20216;-73
2023/06/30 14:21:01;;;;;;;1999.90;999.90;;;;;;;;;;4974963;28;20207;-75
2023/06/30 14:23:46;;;;;;;1999.90;999.90;;;;;;;;;;4980712;28;20735;-74
2023/06/30 14:26:32;;;;;;;1999.90;999.90;;;;;;;;;;4981270;28;20211;-72
2023/06/30 14:29:17;;;;;;;1999.90;999.90;;;;;;;;;;4982026;28;20211;-74
2023/06/30 14:32:02;;;;;;;1999.90;999.90;;;;;;;;;;4980771;28;20612;-74
2023/06/30 14:34:47;;;;;;;1999.90;999.90;;;;;;;;;;4983455;28;20430;-72
2023/06/30 14:37:32;;;;;;;1999.90;999.90;;;;;;;;;;4979047;28;20195;-73
2023/06/30 14:40:18;;;;;;;1999.90;999.90;;;;;;;;;;4983533;28;20319;-73
2023/06/30 14:43:04;;;;;;;1999.90;999.90;;;;;;;;;;4981947;28;20212;-75
2023/06/30 14:45:49;;;;;;;1999.90;999.90;;;;;;;;;;4979874;28;20208;-76
2023/06/30 14:48:34;;;;;;;1999.90;999.90;;;;;;;;;;4973395;28;20689;-76
2023/06/30 14:51:19;;;;;;;1999.90;999.90;;;;;;;;;;4973106;28;20204;-76
2023/06/30 14:54:04;;;;;;;1999.90;999.90;;;;;;;;;;4971790;28;20423;-76
2023/06/30 14:56:49;;;;;;;1999.90;999.90;;;;;;;;;;4973249;28;20231;-76
2023/06/30 14:59:35;;;;;;;1999.90;999.90;;;;;;;;;;4973300;28;20700;-75
2023/06/30 15:02:20;;;;;;;1999.90;999.90;;;;;;;;;;4972861;28;20207;-76
2023/06/30 15:05:06;;;;;;;1999.90;999.90;;;;;;;;;;4973051;28;20231;-76
2023/06/30 15:07:52;;;;;;;1999.90;999.90;;;;;;;;;;4973401;28;20200;-76
2023/06/30 15:10:37;;;;;;;1999.90;999.90;;;;;;;;;;4973110;28;20316;-76
2023/06/30 15:13:22;;;;;;;1999.90;999.90;;;;;;;;;;4972823;28;20227;-76
2023/06/30 15:16:08;;;;;;;1999.90;999.90;;;;;;;;;;4972675;28;20267;-76
2023/06/30 15:18:53;;;;;;;1999.90;999.90;;;;;;;;;;4973328;28;20339;-76
2023/06/30 15:21:40;;;;;;;1999.90;999.90;;;;;;;;;;4973103;28;20418;-75
2023/06/30 15:24:25;;;;;;;1999.90;999.90;;;;;;;;;;4972918;28;20228;-76
2023/06/30 15:27:10;;;;;;;1999.90;999.90;;;;;;;;;;4972712;28;20236;-76
2023/06/30 15:29:55;;;;;;;1999.90;999.90;;;;;;;;;;4973859;28;20204;-76
2023/06/30 15:32:42;;;;;;;1999.90;999.90;;;;;;;;;;4974418;28;20207;-75
2023/06/30 15:35:26;;;;;;;1999.90;999.90;;;;;;;;;;4979053;28;20212;-76
2023/06/30 15:38:11;;;;;;;1999.90;999.90;;;;;;;;;;4979788;28;20259;-76
2023/06/30 15:40:56;;;;;;;1999.90;999.90;;;;;;;;;;4976638;28;20214;-76
2023/06/30 15:43:41;;;;;;;1999.90;999.90;;;;;;;;;;4976679;28;20232;-75
2023/06/30 15:46:26;;;;;;;1999.90;999.90;;;;;;;;;;4976468;28;20792;-75
2023/06/30 15:49:13;;;;;;;1999.90;999.90;;;;;;;;;;4976935;28;20422;-76
2023/06/30 15:51:58;;;;;;;1999.90;999.90;;;;;;;;;;4977228;28;20753;-75
2023/06/30 15:54:43;;;;;;;1999.90;999.90;;;;;;;;;;4976571;28;20622;-74
2023/06/30 15:57:27;;;;;;;1999.90;999.90;;;;;;;;;;4976929;28;20232;-74
2023/06/30 16:00:13;;;;;;;1999.90;999.90;;;;;;;;;;4976398;28;20708;-74
2023/06/30 16:02:58;;;;;;;1999.90;999.90;;;;;;;;;;4976013;28;20207;-74
2023/06/30 16:05:44;;;;;;;1999.90;999.90;;;;;;;;;;4976363;28;20216;-74
2023/06/30 16:08:30;;;;;;;1999.90;999.90;;;;;;;;;;4976324;28;20275;-74
2023/06/30 16:11:14;;;;;;;1999.90;999.90;;;;;;;;;;4976122;28;20340;-76
2023/06/30 16:13:59;;;;;;;1999.90;999.90;;;;;;;;;;4975996;28;20236;-75
2023/06/30 16:16:44;;;;;;;1999.90;999.90;;;;;;;;;;4975807;28;20310;-77
2023/06/30 16:19:29;;;;;;;1999.90;999.90;;;;;;;;;;4976145;28;20204;-76
2023/06/30 16:22:15;;;;;;;1999.90;999.90;;;;;;;;;;4975884;28;20224;-76
2023/06/30 16:25:00;;;;;;;1999.90;999.90;;;;;;;;;;4975579;28;20231;-76
2023/06/30 16:27:45;;;;;;;1999.90;999.90;;;;;;;;;;4975984;28;20231;-76
2023/06/30 16:30:32;;;;;;;1999.90;999.90;;;;;;;;;;4975987;28;20219;-75
2023/06/30 16:33:17;;;;;;;1999.90;999.90;;;;;;;;;;4983351;28;20232;-75
2023/06/30 16:36:02;;;;;;;1999.90;999.90;;;;;;;;;;4984158;28;20231;-75
2023/06/30 16:38:49;;;;;;;1999.90;999.90;;;;;;;;;;4985140;28;20210;-75
2023/06/30 16:41:34;;;;;;;1999.90;999.90;;;;;;;;;;4986120;28;20924;-75
2023/06/30 16:44:19;;;;;;;1999.90;999.90;;;;;;;;;;4996053;28;20310;-75
2023/06/30 16:47:04;;;;;;;1999.90;999.90;;;;;;;;;;4977743;28;20760;-76
2023/06/30 16:49:49;;;;;;;1999.90;999.90;;;;;;;;;;4986077;28;20203;-75
2023/06/30 16:52:35;;;;;;;1999.90;999.90;;;;;;;;;;4982183;28;20350;-74
2023/06/30 16:55:22;;;;;;;1999.90;999.90;;;;;;;;;;4983397;28;20291;-74
2023/06/30 16:58:07;;;;;;;1999.90;999.90;;;;;;;;;;4981436;28;20602;-74
2023/06/30 17:00:52;;;;;;;1999.90;999.90;;;;;;;;;;4981800;28;20206;-76
2023/06/30 17:03:37;;;;;;;1999.90;999.90;;;;;;;;;;4982988;28;20699;-75
2023/06/30 17:06:22;;;;;;;1999.90;999.90;;;;;;;;;;4979450;28;20228;-74
2023/06/30 17:09:07;;;;;;;1999.90;999.90;;;;;;;;;;4983484;28;20238;-73
2023/06/30 17:11:53;;;;;;;1999.90;999.90;;;;;;;;;;4982116;28;20237;-74
2023/06/30 17:14:38;;;;;;;1999.90;999.90;;;;;;;;;;4982536;28;20474;-74
2023/06/30 17:17:23;;;;;;;1999.90;999.90;;;;;;;;;;4977242;28;21486;-73
2023/06/30 17:20:08;;;;;;;1999.90;999.90;;;;;;;;;;4981047;28;20215;-74
2023/06/30 17:22:53;;;;;;;1999.90;999.90;;;;;;;;;;4980414;28;20640;-74
2023/06/30 17:25:38;;;;;;;1999.90;999.90;;;;;;;;;;4985717;28;20222;-74
2023/06/30 17:28:25;;;;;;;1999.90;999.90;;;;;;;;;;4978024;28;20324;-72
2023/06/30 17:31:10;;;;;;;1999.90;999.90;;;;;;;;;;4976177;28;20341;-73
2023/06/30 17:33:55;;;;;;;1999.90;999.90;;;;;;;;;;4983605;28;20235;-73
2023/06/30 17:36:40;;;;;;;1999.90;999.90;;;;;;;;;;4976760;28;20425;-72
2023/06/30 17:39:24;;;;;;;1999.90;999.90;;;;;;;;;;4982034;28;20211;-72
2023/06/30 17:42:09;;;;;;;1999.90;999.90;;;;;;;;;;4979532;28;20208;-74
2023/06/30 17:44:56;;;;;;;1999.90;999.90;;;;;;;;;;4978326;28;20730;-74
2023/06/30 17:47:41;;;;;;;1999.90;999.90;;;;;;;;;;4979713;28;20285;-74
2023/06/30 17:50:25;;;;;;;1999.90;999.90;;;;;;;;;;4979436;28;20819;-73
2023/06/30 17:53:11;;;;;;;1999.90;999.90;;;;;;;;;;4984172;28;20235;-73
2023/06/30 17:55:56;;;;;;;1999.90;999.90;;;;;;;;;;4980068;28;20230;-73
2023/06/30 17:58:40;;;;;;;1999.90;999.90;;;;;;;;;;4978069;28;20222;-73
2023/06/30 18:01:27;;;;;;;1999.90;999.90;;;;;;;;;;4979277;28;20589;-74
2023/06/30 18:04:11;;;;;;;1999.90;999.90;;;;;;;;;;4990504;28;20283;-73
2023/06/30 18:07:01;;;;;;;1999.90;999.90;;;;;;;;;;4976427;28;20423;-74
2023/06/30 18:09:46;;;;;;;1999.90;999.90;;;;;;;;;;4980231;28;20216;-74
2023/06/30 18:12:31;;;;;;;1999.90;999.90;;;;;;;;;;4975944;28;20222;-74
2023/06/30 18:15:16;;;;;;;1999.90;999.90;;;;;;;;;;4976094;28;20759;-73
2023/06/30 18:18:02;;;;;;;1999.90;999.90;;;;;;;;;;4980118;28;20742;-73
2023/06/30 18:20:47;;;;;;;1999.90;999.90;;;;;;;;;;4975130;28;20218;-73
2023/06/30 18:23:32;;;;;;;1999.90;999.90;;;;;;;;;;4977433;28;20310;-74
2023/06/30 18:26:17;;;;;;;1999.90;999.90;;;;;;;;;;4978652;28;20215;-73
2023/06/30 18:29:02;;;;;;;1999.90;999.90;;;;;;;;;;4978359;28;20214;-75
2023/06/30 18:31:46;;;;;;;1999.90;999.90;;;;;;;;;;4979292;28;20612;-75
2023/06/30 18:34:33;;;;;;;1999.90;999.90;;;;;;;;;;4975643;28;20974;-73
2023/06/30 18:37:17;;;;;;;1999.90;999.90;;;;;;;;;;4980604;28;20231;-74
2023/06/30 18:40:03;;;;;;;1999.90;999.90;;;;;;;;;;4980269;28;20217;-74
2023/06/30 18:42:48;;;;;;;1999.90;999.90;;;;;;;;;;4980580;28;20266;-75
2023/06/30 18:45:35;;;;;;;1999.90;999.90;;;;;;;;;;4978429;28;20290;-73
2023/06/30 18:48:20;;;;;;;1999.90;999.90;;;;;;;;;;4982656;28;20207;-74
2023/06/30 18:51:06;;;;;;;1999.90;999.90;;;;;;;;;;4982248;28;20290;-73
2023/06/30 18:53:51;;;;;;;1999.90;999.90;;;;;;;;;;4978523;28;20333;-73
2023/06/30 18:56:36;;;;;;;1999.90;999.90;;;;;;;;;;4975680;28;20624;-73
2023/06/30 18:59:21;;;;;;;1999.90;999.90;;;;;;;;;;4981165;28;20280;-73
2023/06/30 19:02:06;;;;;;;1999.90;999.90;;;;;;;;;;4977143;28;20717;-73
2023/06/30 19:04:51;;;;;;;1999.90;999.90;;;;;;;;;;4982921;28;20424;-73
2023/06/30 19:07:37;;;;;;;1999.90;999.90;;;;;;;;;;4986159;28;20204;-74
2023/06/30 19:10:23;;;;;;;1999.90;999.90;;;;;;;;;;4975961;28;20209;-74
2023/06/30 19:13:08;;;;;;;1999.90;999.90;;;;;;;;;;4982656;28;20227;-73
2023/06/30 19:15:53;;;;;;;1999.90;999.90;;;;;;;;;;4989077;28;20697;-73
2023/06/30 19:18:38;;;;;;;1999.90;999.90;;;;;;;;;;4973614;28;20232;-73